createdAt,value
2018-12-04T00:01:20.277Z,4.53
2018-12-04T00:03:52.852Z,4.07
2018-12-04T00:06:25.456Z,4.70
2018-12-04T00:08:58.364Z,4.27
2018-12-04T00:11:31.797Z,4.40
2018-12-04T00:14:06.551Z,4.30
2018-12-04T00:16:39.810Z,4.37
2018-12-04T00:19:12.756Z,3.87
2018-12-04T00:21:46.283Z,4.10
2018-12-04T00:24:19.149Z,4.20
2018-12-04T00:26:52.280Z,3.40
2018-12-04T00:29:24.677Z,3.80
2018-12-04T00:31:57.644Z,3.60
2018-12-04T00:34:30.801Z,3.77
2018-12-04T00:37:04.263Z,3.47
2018-12-04T00:39:37.543Z,3.70
2018-12-04T00:42:10.249Z,3.83
2018-12-04T00:44:43.682Z,4.17
2018-12-04T00:47:16.809Z,3.77
2018-12-04T00:49:50.076Z,3.53
2018-12-04T00:52:23.208Z,4.00
2018-12-04T00:54:56.250Z,3.80
2018-12-04T00:57:29.435Z,3.90
2018-12-04T01:00:02.825Z,4.30
2018-12-04T01:02:35.323Z,3.50
2018-12-04T01:05:08.659Z,4.53
2018-12-04T01:07:41.187Z,4.30
2018-12-04T01:10:14.007Z,4.17
2018-12-04T01:12:47.450Z,4.30
2018-12-04T01:15:20.324Z,4.80
2018-12-04T01:17:55.519Z,4.70
2018-12-04T01:20:28.697Z,4.43
2018-12-04T01:23:02.572Z,4.40
2018-12-04T01:25:37.463Z,4.47
2018-12-04T01:28:10.987Z,4.23
2018-12-04T01:30:43.530Z,3.77
2018-12-04T01:33:16.447Z,4.17
2018-12-04T01:35:49.283Z,3.53
2018-12-04T01:38:23.746Z,3.83
2018-12-04T01:40:58.380Z,4.20
2018-12-04T01:43:31.896Z,4.73
2018-12-04T01:46:04.782Z,4.03
2018-12-04T01:48:37.490Z,3.53
2018-12-04T01:51:12.086Z,3.50
2018-12-04T01:53:44.945Z,3.50
2018-12-04T01:56:18.084Z,4.10
2018-12-04T01:58:50.871Z,4.50
2018-12-04T02:01:23.624Z,3.67
2018-12-04T02:03:56.461Z,3.33
2018-12-04T02:06:30.175Z,3.63
2018-12-04T02:09:06.559Z,3.53
2018-12-04T02:11:41.153Z,3.73
2018-12-04T02:14:13.924Z,3.33
2018-12-04T02:16:46.453Z,3.83
2018-12-04T02:19:19.635Z,3.87
2018-12-04T02:21:53.170Z,3.17
2018-12-04T02:24:26.577Z,3.30
2018-12-04T02:26:59.901Z,3.47
2018-12-04T02:29:33.303Z,3.10
2018-12-04T02:32:06.690Z,3.53
2018-12-04T02:34:40.458Z,3.33
2018-12-04T02:37:13.765Z,3.67
2018-12-04T02:39:46.801Z,3.50
2018-12-04T02:42:24.013Z,3.47
2018-12-04T02:44:57.254Z,3.50
2018-12-04T02:47:31.164Z,3.53
2018-12-04T02:50:05.117Z,3.67
2018-12-04T02:52:38.232Z,3.00
2018-12-04T02:55:10.857Z,3.37
2018-12-04T02:57:45.476Z,4.10
2018-12-04T03:00:18.845Z,4.13
2018-12-04T03:02:52.653Z,3.63
2018-12-04T03:05:25.299Z,3.90
2018-12-04T03:07:58.050Z,2.37
2018-12-04T03:10:31.629Z,2.87
2018-12-04T03:13:04.636Z,3.47
2018-12-04T03:15:37.212Z,3.40
2018-12-04T03:18:09.991Z,3.30
2018-12-04T03:20:43.387Z,3.03
2018-12-04T03:23:15.936Z,2.20
2018-12-04T03:25:50.482Z,1.57
2018-12-04T03:28:23.293Z,1.60
2018-12-04T03:30:56.645Z,1.60
2018-12-04T03:33:39.749Z,1.50
2018-12-04T03:36:12.838Z,1.43
2018-12-04T03:38:46.545Z,1.33
2018-12-04T03:41:19.716Z,1.10
2018-12-04T03:43:54.293Z,1.33
2018-12-04T03:46:27.796Z,1.20
2018-12-04T03:49:00.754Z,1.30
2018-12-04T03:51:33.516Z,1.60
2018-12-04T03:54:06.341Z,1.30
2018-12-04T03:56:39.930Z,1.40
2018-12-04T03:59:12.729Z,0.83
2018-12-04T04:01:46.770Z,1.27
2018-12-04T04:04:20.186Z,1.10
2018-12-04T04:06:53.241Z,1.10
2018-12-04T04:09:27.735Z,1.20
2018-12-04T04:12:00.925Z,1.77
2018-12-04T04:14:33.739Z,1.27
2018-12-04T04:17:06.851Z,1.50
2018-12-04T04:19:41.563Z,1.83
2018-12-04T04:22:14.932Z,1.37
2018-12-04T04:24:49.791Z,1.63
2018-12-04T04:27:22.340Z,1.83
2018-12-04T04:29:55.213Z,1.40
2018-12-04T04:32:28.178Z,1.40
2018-12-04T04:35:02.017Z,1.60
2018-12-04T04:37:35.455Z,1.33
2018-12-04T04:40:08.260Z,1.93
2018-12-04T04:42:41.825Z,1.60
2018-12-04T04:45:15.094Z,1.90
2018-12-04T04:47:49.031Z,2.43
2018-12-04T04:50:21.766Z,1.70
2018-12-04T04:52:54.962Z,1.10
2018-12-04T04:55:27.566Z,1.67
2018-12-04T04:58:00.655Z,1.53
2018-12-04T05:00:33.834Z,1.30
2018-12-04T05:03:07.069Z,1.80
2018-12-04T05:05:41.040Z,1.80
2018-12-04T05:08:13.916Z,1.80
2018-12-04T05:10:47.487Z,1.23
2018-12-04T05:13:22.156Z,1.83
2018-12-04T05:15:55.531Z,2.03
2018-12-04T05:18:28.972Z,1.60
2018-12-04T05:21:03.859Z,2.17
2018-12-04T05:23:37.533Z,1.67
2018-12-04T05:26:11.084Z,2.13
2018-12-04T05:28:44.224Z,1.53
2018-12-04T05:31:17.126Z,1.80
2018-12-04T05:33:51.003Z,2.30
2018-12-04T05:36:23.744Z,1.90
2018-12-04T05:38:58.745Z,1.73
2018-12-04T05:41:31.508Z,2.20
2018-12-04T05:44:05.941Z,2.13
2018-12-04T05:46:38.785Z,1.80
2018-12-04T05:49:11.931Z,2.20
2018-12-04T05:51:44.894Z,2.43
2018-12-04T05:54:18.837Z,2.13
2018-12-04T05:56:52.433Z,1.93
2018-12-04T05:59:25.204Z,2.10
2018-12-04T06:01:58.019Z,2.33
2018-12-04T06:04:32.407Z,3.30
2018-12-04T06:07:06.964Z,1.60
2018-12-04T06:09:39.649Z,2.07
2018-12-04T06:12:12.374Z,1.83
2018-12-04T06:14:46.519Z,2.40
2018-12-04T06:17:19.077Z,2.30
2018-12-04T06:19:52.022Z,2.40
2018-12-04T06:22:25.256Z,2.10
2018-12-04T06:24:58.784Z,1.67
2018-12-04T06:27:32.065Z,2.03
2018-12-04T06:30:06.254Z,2.30
2018-12-04T06:32:39.474Z,2.33
2018-12-04T06:35:12.492Z,2.53
2018-12-04T06:37:45.518Z,2.27
2018-12-04T06:40:18.278Z,2.73
2018-12-04T06:42:52.841Z,2.23
2018-12-04T06:45:25.799Z,2.93
2018-12-04T06:47:58.293Z,2.50
2018-12-04T06:50:32.430Z,3.30
2018-12-04T06:53:05.621Z,2.37
2018-12-04T06:55:39.246Z,1.90
2018-12-04T06:58:13.216Z,2.50
2018-12-04T07:00:45.910Z,2.43
2018-12-04T07:03:21.500Z,2.80
2018-12-04T07:05:55.718Z,2.20
2018-12-04T07:08:29.191Z,2.33
2018-12-04T07:11:02.735Z,2.27
2018-12-04T07:13:35.562Z,2.20
2018-12-04T07:16:08.708Z,3.00
2018-12-04T07:18:41.818Z,1.93
2018-12-04T07:21:15.296Z,2.33
2018-12-04T07:23:48.911Z,2.40
2018-12-04T07:26:21.893Z,2.77
2018-12-04T07:28:55.514Z,2.80
2018-12-04T07:31:28.897Z,2.37
2018-12-04T07:34:02.016Z,2.63
2018-12-04T07:36:34.879Z,2.80
2018-12-04T07:39:08.483Z,2.27
2018-12-04T07:41:41.820Z,2.67
2018-12-04T07:44:15.145Z,2.80
2018-12-04T07:46:48.050Z,2.30
2018-12-04T07:49:22.621Z,2.13
2018-12-04T07:51:55.250Z,2.17
2018-12-04T07:54:28.180Z,3.13
2018-12-04T07:57:01.022Z,2.33
2018-12-04T07:59:34.487Z,2.27
2018-12-04T08:02:08.045Z,2.33
2018-12-04T08:04:41.089Z,2.70
2018-12-04T08:07:15.912Z,2.30
2018-12-04T08:09:50.605Z,2.93
2018-12-04T08:12:23.565Z,1.80
2018-12-04T08:14:56.986Z,2.70
2018-12-04T08:17:30.756Z,2.77
2018-12-04T08:20:05.507Z,1.90
2018-12-04T08:22:38.517Z,1.93
2018-12-04T08:25:12.596Z,2.20
2018-12-04T08:27:46.331Z,2.13
2018-12-04T08:30:19.949Z,1.50
2018-12-04T08:32:53.426Z,2.70
2018-12-04T08:35:26.797Z,2.60
2018-12-04T08:38:00.178Z,2.37
2018-12-04T08:40:33.181Z,2.40
2018-12-04T08:43:06.332Z,2.47
2018-12-04T08:45:39.071Z,2.57
2018-12-04T08:48:11.786Z,2.10
2018-12-04T08:50:45.073Z,2.50
2018-12-04T08:53:17.996Z,2.57
2018-12-04T08:55:50.982Z,2.90
2018-12-04T08:58:24.852Z,2.10
2018-12-04T09:00:57.959Z,2.47
2018-12-04T09:03:31.169Z,2.40
2018-12-04T09:06:07.229Z,1.80
2018-12-04T09:08:40.161Z,2.77
2018-12-04T09:11:13.572Z,2.37
2018-12-04T09:13:47.772Z,3.03
2018-12-04T09:16:23.379Z,2.50
2018-12-04T09:18:55.411Z,2.50
2018-12-04T09:21:28.910Z,1.97
2018-12-04T09:24:01.741Z,2.07
2018-12-04T09:26:35.355Z,2.10
2018-12-04T09:29:08.335Z,2.90
2018-12-04T09:31:42.441Z,3.00
2018-12-04T09:34:15.483Z,2.57
2018-12-04T09:36:48.460Z,2.50
2018-12-04T09:39:21.611Z,2.50
2018-12-04T09:41:55.117Z,2.83
2018-12-04T09:44:27.954Z,2.47
2018-12-04T09:47:00.778Z,2.57
2018-12-04T09:49:34.010Z,2.17
2018-12-04T09:52:08.668Z,2.30
2018-12-04T09:54:41.323Z,2.73
2018-12-04T09:57:14.589Z,3.30
2018-12-04T09:59:48.326Z,2.80
2018-12-04T10:02:22.584Z,2.50
2018-12-04T10:04:55.636Z,2.80
2018-12-04T10:07:29.434Z,2.20
2018-12-04T10:10:02.673Z,2.27
2018-12-04T10:12:36.365Z,2.43
2018-12-04T10:15:10.166Z,2.60
2018-12-04T10:17:43.119Z,2.67
2018-12-04T10:20:16.503Z,2.20
2018-12-04T10:22:49.987Z,2.37
2018-12-04T10:25:23.849Z,1.70
2018-12-04T10:27:56.686Z,2.23
2018-12-04T10:30:30.530Z,3.00
2018-12-04T10:33:03.275Z,3.23
2018-12-04T10:35:36.661Z,2.83
2018-12-04T10:38:09.374Z,2.50
2018-12-04T10:40:42.847Z,2.13
2018-12-04T10:43:16.498Z,2.07
2018-12-04T10:45:49.945Z,1.70
2018-12-04T10:48:23.344Z,2.50
2018-12-04T10:50:56.796Z,2.03
2018-12-04T10:53:30.523Z,1.90
2018-12-04T10:56:03.475Z,3.50
2018-12-04T10:58:36.742Z,2.27
2018-12-04T11:01:17.075Z,2.43
2018-12-04T11:03:50.748Z,1.93
2018-12-04T11:06:23.360Z,2.33
2018-12-04T11:08:57.579Z,2.80
2018-12-04T11:11:31.283Z,1.83
2018-12-04T11:14:04.446Z,2.90
2018-12-04T11:16:37.384Z,1.90
2018-12-04T11:19:10.592Z,1.90
2018-12-04T11:21:44.594Z,1.73
2018-12-04T11:24:19.455Z,1.70
2018-12-04T11:26:52.659Z,3.60
2018-12-04T11:29:26.161Z,1.90
2018-12-04T11:32:03.363Z,2.47
2018-12-04T11:34:36.330Z,2.27
2018-12-04T11:37:09.573Z,2.07
2018-12-04T11:39:42.759Z,2.50
2018-12-04T11:42:17.521Z,1.60
2018-12-04T11:44:50.723Z,2.30
2018-12-04T11:47:23.763Z,1.83
2018-12-04T11:49:56.583Z,1.63
2018-12-04T11:52:30.478Z,2.70
2018-12-04T11:55:03.548Z,2.83
2018-12-04T11:57:37.000Z,1.93
2018-12-04T12:00:18.044Z,2.57
2018-12-04T12:02:51.062Z,2.03
2018-12-04T12:05:23.541Z,2.30
2018-12-04T12:07:56.578Z,1.97
2018-12-04T12:10:30.237Z,2.10
2018-12-04T12:13:03.944Z,2.00
2018-12-04T12:15:38.930Z,2.13
2018-12-04T12:18:11.545Z,2.33
2018-12-04T12:20:44.615Z,2.10
2018-12-04T12:23:17.570Z,2.23
2018-12-04T12:25:50.889Z,1.63
2018-12-04T12:28:24.114Z,1.67
2018-12-04T12:30:59.522Z,1.97
2018-12-04T12:33:34.735Z,2.60
2018-12-04T12:36:09.601Z,2.00
2018-12-04T12:38:43.120Z,2.33
2018-12-04T12:41:16.177Z,1.93
2018-12-04T12:43:50.672Z,2.30
2018-12-04T12:46:23.699Z,2.50
2018-12-04T12:48:56.676Z,1.63
2018-12-04T12:51:30.079Z,1.87
2018-12-04T12:54:03.048Z,2.27
2018-12-04T12:56:36.573Z,1.80
2018-12-04T12:59:09.488Z,2.27
2018-12-04T13:01:42.376Z,1.70
2018-12-04T13:04:15.904Z,2.60
2018-12-04T13:06:51.043Z,2.87
2018-12-04T13:09:24.437Z,2.30
2018-12-04T13:11:57.227Z,2.27
2018-12-04T13:14:30.838Z,2.63
2018-12-04T13:17:05.584Z,2.53
2018-12-04T13:19:41.330Z,2.60
2018-12-04T13:22:15.452Z,2.30
2018-12-04T13:24:49.947Z,2.43
2018-12-04T13:27:24.113Z,1.97
2018-12-04T13:29:57.739Z,2.73
2018-12-04T13:32:31.892Z,2.70
2018-12-04T13:35:06.082Z,2.30
2018-12-04T13:37:39.631Z,2.37
2018-12-04T13:40:13.022Z,2.13
2018-12-04T13:42:46.516Z,2.00
2018-12-04T13:45:20.027Z,2.70
2018-12-04T13:47:52.590Z,2.30
2018-12-04T13:50:26.513Z,3.00
2018-12-04T13:52:59.434Z,2.27
2018-12-04T13:55:33.077Z,2.00
2018-12-04T13:58:08.672Z,2.20
2018-12-04T14:00:42.759Z,2.30
2018-12-04T14:03:15.718Z,2.03
2018-12-04T14:05:48.747Z,2.30
2018-12-04T14:08:21.568Z,2.17
2018-12-04T14:10:54.499Z,2.23
2018-12-04T14:13:27.873Z,3.90
2018-12-04T14:16:01.567Z,1.97
2018-12-04T14:18:35.102Z,1.77
2018-12-04T14:21:08.143Z,2.40
2018-12-04T14:23:41.432Z,2.13
2018-12-04T14:26:15.609Z,2.23
2018-12-04T14:28:49.503Z,1.93
2018-12-04T14:31:23.687Z,2.10
2018-12-04T14:33:56.789Z,2.37
2018-12-04T14:36:29.881Z,2.40
2018-12-04T14:39:07.064Z,2.60
2018-12-04T14:41:39.893Z,2.60
2018-12-04T14:44:12.886Z,3.00
2018-12-04T14:46:46.094Z,2.13
2018-12-04T14:49:19.625Z,2.63
2018-12-04T14:51:52.932Z,2.10
2018-12-04T14:54:25.719Z,2.70
2018-12-04T14:56:59.432Z,2.53
2018-12-04T14:59:34.034Z,2.13
2018-12-04T15:02:07.111Z,1.90
2018-12-04T15:04:40.435Z,2.63
2018-12-04T15:07:13.495Z,1.60
2018-12-04T15:09:46.167Z,2.47
2018-12-04T15:12:19.553Z,2.47
2018-12-04T15:14:52.465Z,2.33
2018-12-04T15:17:26.368Z,2.27
2018-12-04T15:19:59.989Z,2.60
2018-12-04T15:22:33.367Z,2.10
2018-12-04T15:25:06.469Z,2.33
2018-12-04T15:27:41.106Z,2.90
2018-12-04T15:30:14.174Z,3.17
2018-12-04T15:32:47.210Z,2.33
2018-12-04T15:35:21.850Z,2.80
2018-12-04T15:37:54.734Z,2.33
2018-12-04T15:40:29.200Z,2.40
2018-12-04T15:43:01.836Z,2.60
2018-12-04T15:45:34.866Z,2.90
2018-12-04T15:48:08.175Z,2.60
2018-12-04T15:50:41.202Z,2.43
2018-12-04T15:53:14.849Z,2.80
2018-12-04T15:55:48.211Z,3.07
2018-12-04T15:58:21.780Z,3.30
2018-12-04T16:00:55.477Z,3.23
2018-12-04T16:03:28.269Z,2.70
2018-12-04T16:06:01.464Z,2.37
2018-12-04T16:08:36.483Z,2.63
2018-12-04T16:11:09.876Z,2.77
2018-12-04T16:13:43.763Z,2.63
2018-12-04T16:16:16.608Z,2.60
2018-12-04T16:18:50.253Z,2.93
2018-12-04T16:21:23.034Z,2.47
2018-12-04T16:23:56.170Z,2.20
2018-12-04T16:26:30.024Z,2.63
2018-12-04T16:29:04.202Z,2.90
2018-12-04T16:31:37.522Z,2.60
2018-12-04T16:34:10.965Z,2.37
2018-12-04T16:36:43.931Z,2.80
2018-12-04T16:39:17.284Z,3.10
2018-12-04T16:41:50.713Z,2.40
2018-12-04T16:44:24.169Z,2.57
2018-12-04T16:47:00.263Z,2.20
2018-12-04T16:49:34.994Z,3.03
2018-12-04T16:52:08.403Z,2.60
2018-12-04T16:54:41.183Z,2.20
2018-12-04T16:57:16.333Z,2.53
2018-12-04T16:59:50.191Z,2.70
2018-12-04T17:02:23.891Z,2.40
2018-12-04T17:04:56.759Z,2.30
2018-12-04T17:07:29.874Z,2.97
2018-12-04T17:10:02.899Z,2.47
2018-12-04T17:12:36.183Z,2.60
2018-12-04T17:15:08.935Z,3.17
2018-12-04T17:17:41.934Z,4.67
2018-12-04T17:20:16.766Z,6.13
2018-12-04T17:22:49.537Z,12.77
2018-12-04T17:25:24.387Z,3.20
2018-12-04T17:27:57.458Z,2.63
2018-12-04T17:30:30.068Z,3.60
2018-12-04T17:33:02.885Z,3.17
2018-12-04T17:35:35.685Z,3.43
2018-12-04T17:38:08.693Z,2.57
2018-12-04T17:40:42.067Z,2.60
2018-12-04T17:43:15.294Z,2.87
2018-12-04T17:45:48.213Z,3.93
2018-12-04T17:48:21.822Z,2.80
2018-12-04T17:50:54.648Z,3.30
2018-12-04T17:53:29.128Z,3.00
2018-12-04T17:56:02.881Z,4.10
2018-12-04T17:58:35.550Z,2.47
2018-12-04T18:01:09.593Z,2.90
2018-12-04T18:03:42.136Z,3.67
2018-12-04T18:06:14.778Z,2.40
2018-12-04T18:08:49.297Z,3.47
2018-12-04T18:11:22.093Z,3.37
2018-12-04T18:13:54.768Z,4.17
2018-12-04T18:16:27.827Z,2.53
2018-12-04T18:19:03.091Z,2.30
2018-12-04T18:21:37.879Z,3.10
2018-12-04T18:24:10.794Z,2.77
2018-12-04T18:26:43.938Z,2.80
2018-12-04T18:29:16.833Z,3.50
2018-12-04T18:31:51.639Z,2.70
2018-12-04T18:34:24.332Z,3.00
2018-12-04T18:36:58.618Z,3.07
2018-12-04T18:39:32.411Z,2.93
2018-12-04T18:42:05.659Z,2.87
2018-12-04T18:44:38.621Z,3.10
2018-12-04T18:47:11.678Z,3.20
2018-12-04T18:49:45.217Z,3.10
2018-12-04T18:52:18.043Z,3.17
2018-12-04T18:54:51.322Z,2.67
2018-12-04T18:57:24.168Z,3.43
2018-12-04T18:59:57.594Z,3.60
2018-12-04T19:02:30.456Z,2.97
2018-12-04T19:05:04.716Z,3.43
2018-12-04T19:07:39.521Z,2.90
2018-12-04T19:10:14.336Z,3.00
2018-12-04T19:12:47.949Z,2.67
2018-12-04T19:15:21.035Z,2.77
2018-12-04T19:17:53.860Z,2.60
2018-12-04T19:20:26.939Z,2.20
2018-12-04T19:23:01.761Z,2.80
2018-12-04T19:25:35.166Z,3.13
2018-12-04T19:28:08.715Z,2.47
2018-12-04T19:30:43.466Z,2.80
2018-12-04T19:33:17.456Z,3.50
2018-12-04T19:35:50.281Z,3.60
2018-12-04T19:38:25.760Z,2.90
2018-12-04T19:41:00.689Z,5.13
2018-12-04T19:43:33.599Z,2.73
2018-12-04T19:46:08.323Z,2.83
2018-12-04T19:48:42.574Z,2.80
2018-12-04T19:51:17.623Z,2.57
2018-12-04T19:53:51.733Z,2.67
2018-12-04T19:56:25.252Z,2.60
2018-12-04T19:58:59.558Z,4.50
2018-12-04T20:01:32.612Z,3.43
2018-12-04T20:04:05.714Z,2.80
2018-12-04T20:06:38.528Z,2.80
2018-12-04T20:09:12.103Z,3.10
2018-12-04T20:11:45.181Z,3.13
2018-12-04T20:14:18.410Z,3.00
2018-12-04T20:16:51.151Z,3.03
2018-12-04T20:19:25.178Z,3.23
2018-12-04T20:21:58.657Z,3.10
2018-12-04T20:24:32.038Z,3.27
2018-12-04T20:27:05.351Z,2.97
2018-12-04T20:29:38.129Z,3.60
2018-12-04T20:32:11.315Z,2.90
2018-12-04T20:34:44.393Z,3.17
2018-12-04T20:37:17.986Z,3.07
2018-12-04T20:39:51.982Z,3.10
2018-12-04T20:42:25.264Z,3.00
2018-12-04T20:44:58.711Z,2.60
2018-12-04T20:47:31.374Z,2.90
2018-12-04T20:50:06.743Z,3.13
2018-12-04T20:52:41.012Z,3.10
2018-12-04T20:55:15.905Z,3.87
2018-12-04T20:57:49.349Z,3.43
2018-12-04T21:00:22.365Z,3.77
2018-12-04T21:02:55.641Z,3.10
2018-12-04T21:05:28.939Z,3.33
2018-12-04T21:08:02.388Z,2.93
2018-12-04T21:10:35.630Z,3.23
2018-12-04T21:13:14.453Z,3.97
2018-12-04T21:15:43.828Z,3.57
2018-12-04T21:18:17.289Z,3.80
2018-12-04T21:20:51.548Z,2.93
2018-12-04T21:23:25.349Z,3.37
2018-12-04T21:25:59.460Z,3.30
2018-12-04T21:28:32.186Z,3.50
2018-12-04T21:31:11.209Z,3.37
2018-12-04T21:33:49.818Z,2.77
2018-12-04T21:36:29.003Z,2.80
2018-12-04T21:39:07.693Z,2.80
2018-12-04T21:41:46.512Z,4.90
2018-12-04T21:44:24.814Z,5.40
2018-12-04T21:47:03.429Z,6.20
2018-12-04T21:49:37.001Z,4.07
2018-12-04T21:52:09.955Z,4.13
2018-12-04T21:54:44.520Z,2.27
2018-12-04T21:57:17.565Z,2.50
2018-12-04T21:59:50.952Z,3.00
2018-12-04T22:02:24.521Z,3.30
2018-12-04T22:04:57.162Z,4.07
2018-12-04T22:07:32.552Z,2.80
2018-12-04T22:10:07.353Z,2.90
2018-12-04T22:12:40.551Z,2.97
2018-12-04T22:15:14.248Z,3.17
2018-12-04T22:17:47.406Z,2.57
2018-12-04T22:20:20.753Z,2.53
2018-12-04T22:22:53.556Z,2.70
2018-12-04T22:25:26.813Z,2.90
2018-12-04T22:28:01.195Z,2.33
2018-12-04T22:30:34.102Z,2.43
2018-12-04T22:33:13.441Z,2.63
2018-12-04T22:35:46.061Z,2.80
2018-12-04T22:38:19.410Z,2.57
2018-12-04T22:40:52.820Z,2.63
2018-12-04T22:43:25.518Z,2.53
2018-12-04T22:45:58.029Z,2.77
2018-12-04T22:48:30.992Z,2.57
2018-12-04T22:51:10.828Z,2.57
2018-12-04T22:53:44.068Z,2.23
2018-12-04T22:56:16.882Z,2.77
2018-12-04T22:58:50.280Z,2.53
2018-12-04T23:01:34.319Z,2.60
2018-12-04T23:04:07.746Z,2.57
2018-12-04T23:06:42.436Z,2.17
2018-12-04T23:09:18.066Z,2.30
2018-12-04T23:11:51.456Z,2.80
2018-12-04T23:14:24.751Z,2.30
2018-12-04T23:16:57.804Z,2.30
2018-12-04T23:19:30.436Z,2.03
2018-12-04T23:22:03.263Z,2.47
2018-12-04T23:24:36.513Z,2.50
2018-12-04T23:27:11.051Z,2.67
2018-12-04T23:29:44.443Z,2.70
2018-12-04T23:32:17.347Z,2.50
2018-12-04T23:34:50.179Z,2.63
2018-12-04T23:37:24.616Z,2.50
2018-12-04T23:39:57.722Z,1.87
2018-12-04T23:42:31.248Z,2.43
2018-12-04T23:45:05.222Z,2.63
2018-12-04T23:47:38.746Z,2.53
2018-12-04T23:50:11.785Z,3.23
2018-12-04T23:52:44.456Z,3.50
2018-12-04T23:55:17.435Z,2.60
2018-12-04T23:57:50.411Z,3.40
